Time;durP1;ratioP1;P1;durP2;ratioP2;P2;SDS_P1;SDS_P2;PMS_P1;PMS_P2;Temp;Humidity;BMP_temperature;BMP_pressure;BME280_temperature;BME280_humidity;BME280_pressure;Samples;Min_cycle;Max_cycle;Signal;HPM_P1;HPM_P2
2023/05/24 00:00:11;;;;;;;23.47;2.80;;;10.80;99.90;;;;;;5214102;28;20245;-49
2023/05/24 00:02:42;;;;;;;9.10;2.67;;;10.70;99.90;;;;;;5214830;28;21247;-49
2023/05/24 00:05:13;;;;;;;4.20;2.50;;;10.70;99.90;;;;;;5223292;28;20433;-49
2023/05/24 00:07:44;;;;;;;14.07;3.37;;;10.70;99.90;;;;;;5216850;28;20211;-49
2023/05/24 00:10:14;;;;;;;10.93;2.80;;;10.70;99.90;;;;;;5219360;28;20461;-48
2023/05/24 00:12:45;;;;;;;17.50;3.10;;;10.60;99.90;;;;;;5223461;28;20224;-50
2023/05/24 00:15:16;;;;;;;7.40;2.80;;;10.60;99.90;;;;;;5216900;28;20240;-49
2023/05/24 00:17:46;;;;;;;8.30;2.53;;;10.60;99.90;;;;;;5222867;28;20288;-50
2023/05/24 00:20:19;;;;;;;22.63;4.10;;;10.70;99.90;;;;;;5223091;28;20183;-50
2023/05/24 00:22:50;;;;;;;9.17;3.40;;;10.70;99.90;;;;;;5221813;28;20191;-51
2023/05/24 00:25:21;;;;;;;8.10;2.90;;;10.70;99.90;;;;;;5220540;28;20435;-50
2023/05/24 00:27:51;;;;;;;16.03;3.33;;;10.60;99.90;;;;;;5222461;28;20449;-48
2023/05/24 00:30:22;;;;;;;8.53;3.33;;;10.50;99.90;;;;;;5218136;28;20629;-49
2023/05/24 00:32:52;;;;;;;14.80;2.80;;;10.50;99.90;;;;;;5221358;28;20171;-49
2023/05/24 00:35:23;;;;;;;7.40;2.67;;;10.40;99.90;;;;;;5223698;28;20179;-48
2023/05/24 00:37:54;;;;;;;9.10;3.10;;;10.40;99.90;;;;;;5223528;28;20230;-49
2023/05/24 00:40:24;;;;;;;19.10;3.37;;;10.40;99.90;;;;;;5224180;28;20568;-49
2023/05/24 00:42:55;;;;;;;9.00;3.50;;;10.40;99.90;;;;;;5226324;28;20186;-48
2023/05/24 00:45:25;;;;;;;15.17;2.83;;;10.40;99.90;;;;;;5225500;28;20269;-49
2023/05/24 00:47:56;;;;;;;18.97;2.70;;;10.40;99.90;;;;;;5223073;28;20233;-48
2023/05/24 00:50:27;;;;;;;11.93;2.83;;;10.40;99.90;;;;;;5208680;28;20194;-49
2023/05/24 00:53:01;;;;;;;5.70;2.27;;;10.50;99.90;;;;;;5226140;28;20258;-49
2023/05/24 00:55:33;;;;;;;10.67;2.67;;;10.50;99.90;;;;;;5219885;28;20183;-49
2023/05/24 00:58:04;;;;;;;8.43;2.50;;;10.60;99.90;;;;;;5225388;28;20461;-49
2023/05/24 01:00:36;;;;;;;5.93;3.20;;;10.60;99.90;;;;;;5222944;28;20437;-49
2023/05/24 01:03:07;;;;;;;12.23;2.47;;;10.60;99.90;;;;;;5221636;28;20210;-49
2023/05/24 01:05:37;;;;;;;8.90;3.10;;;10.60;99.90;;;;;;5204572;28;20511;-49
2023/05/24 01:08:20;;;;;;;12.90;2.60;;;10.70;99.90;;;;;;5217701;28;20461;-49
2023/05/24 01:10:57;;;;;;;14.70;3.30;;;10.70;99.90;;;;;;5219098;28;20614;-49
2023/05/24 01:13:57;;;;;;;10.63;3.20;;;10.70;99.90;;;;;;5215106;28;20440;-49
2023/05/24 01:16:45;;;;;;;10.93;2.60;;;10.70;99.90;;;;;;5213085;28;20795;-49
2023/05/24 01:19:43;;;;;;;12.97;3.00;;;10.70;99.90;;;;;;5212882;28;20824;-49
2023/05/24 01:22:39;;;;;;;7.73;2.80;;;10.80;99.90;;;;;;5217126;28;20438;-49
2023/05/24 01:25:28;;;;;;;11.43;2.70;;;10.80;99.90;;;;;;5214536;28;20438;-49
2023/05/24 01:28:00;;;;;;;5.93;2.53;;;10.80;99.90;;;;;;5222091;28;20452;-49
2023/05/24 01:30:32;;;;;;;8.97;2.30;;;10.80;99.90;;;;;;5216651;28;20465;-49
2023/05/24 01:33:03;;;;;;;11.77;2.80;;;10.80;99.90;;;;;;5219878;28;20982;-49
2023/05/24 01:35:38;;;;;;;11.90;2.90;;;10.80;99.90;;;;;;5203323;28;20573;-49
2023/05/24 01:38:10;;;;;;;14.47;3.17;;;10.80;99.90;;;;;;5220894;28;20195;-49
2023/05/24 01:40:42;;;;;;;16.47;2.97;;;10.80;99.90;;;;;;5216459;28;20563;-49
2023/05/24 01:43:32;;;;;;;10.77;2.33;;;10.80;99.90;;;;;;5218022;28;20444;-49
2023/05/24 01:46:32;;;;;;;5.53;2.40;;;10.80;99.90;;;;;;5236197;28;20457;-49
2023/05/24 01:49:21;;;;;;;12.87;3.07;;;10.80;99.90;;;;;;5213288;28;20507;-49
2023/05/24 01:52:14;;;;;;;8.70;2.90;;;10.90;99.90;;;;;;5220183;28;20469;-49
2023/05/24 01:54:50;;;;;;;8.57;2.30;;;10.90;99.90;;;;;;5218627;28;20467;-49
2023/05/24 01:57:22;;;;;;;12.67;2.50;;;10.90;99.90;;;;;;5213154;28;20461;-50
2023/05/24 01:59:54;;;;;;;23.10;3.40;;;10.90;99.90;;;;;;5215695;28;20437;-49
2023/05/24 02:02:24;;;;;;;7.30;2.30;;;10.90;99.90;;;;;;5219027;28;20439;-49
2023/05/24 02:04:55;;;;;;;6.23;2.50;;;10.80;99.90;;;;;;5222984;28;21151;-49
2023/05/24 02:07:26;;;;;;;11.70;2.37;;;10.90;99.90;;;;;;5217169;28;20233;-49
2023/05/24 02:09:57;;;;;;;4.50;2.27;;;10.90;99.90;;;;;;5219725;28;20538;-49
2023/05/24 02:12:27;;;;;;;19.27;3.27;;;11.00;99.90;;;;;;5217276;28;20274;-50
2023/05/24 02:14:59;;;;;;;7.37;2.77;;;11.00;99.90;;;;;;5220521;28;20223;-49
2023/05/24 02:17:31;;;;;;;11.00;2.83;;;11.00;99.90;;;;;;5215855;28;20215;-49
2023/05/24 02:20:02;;;;;;;6.10;2.30;;;11.00;99.90;;;;;;5218584;28;20512;-49
2023/05/24 02:22:33;;;;;;;10.60;3.07;;;10.90;99.90;;;;;;5220281;28;20441;-49
2023/05/24 02:25:04;;;;;;;15.30;2.40;;;10.90;99.90;;;;;;5219369;28;20797;-50
2023/05/24 02:27:35;;;;;;;13.53;2.63;;;10.90;99.90;;;;;;5217448;28;20199;-50
2023/05/24 02:30:06;;;;;;;18.43;3.77;;;10.90;99.90;;;;;;5216014;28;20465;-49
2023/05/24 02:32:37;;;;;;;9.07;3.03;;;10.90;99.90;;;;;;5219490;28;20179;-48
2023/05/24 02:35:08;;;;;;;12.83;2.50;;;10.80;99.90;;;;;;5218317;28;20467;-49
2023/05/24 02:37:39;;;;;;;10.13;2.40;;;10.90;99.90;;;;;;5213939;28;20625;-49
2023/05/24 02:40:10;;;;;;;17.23;2.90;;;10.80;99.90;;;;;;5221809;28;20258;-49
2023/05/24 02:42:41;;;;;;;11.50;3.53;;;10.80;99.90;;;;;;5220545;28;20862;-48
2023/05/24 02:45:12;;;;;;;15.83;2.57;;;10.90;99.90;;;;;;5220459;28;20456;-49
2023/05/24 02:47:42;;;;;;;10.83;2.57;;;10.90;99.90;;;;;;5223950;28;20208;-50
2023/05/24 02:50:13;;;;;;;19.23;2.50;;;10.80;99.90;;;;;;5222391;28;20577;-50
2023/05/24 02:52:43;;;;;;;7.87;3.17;;;10.90;99.90;;;;;;5218429;28;20246;-50
2023/05/24 02:55:14;;;;;;;6.70;2.50;;;10.80;99.90;;;;;;5222068;28;20661;-48
2023/05/24 02:57:46;;;;;;;13.10;2.43;;;10.70;99.90;;;;;;5223714;28;20234;-50
2023/05/24 03:00:18;;;;;;;6.90;2.47;;;10.90;99.90;;;;;;5219199;28;20213;-48
2023/05/24 03:02:49;;;;;;;17.83;2.73;;;10.80;99.90;;;;;;5218524;28;20476;-50
2023/05/24 03:05:20;;;;;;;6.13;2.70;;;10.80;99.90;;;;;;5214553;28;20437;-50
2023/05/24 03:07:51;;;;;;;5.20;2.20;;;10.80;99.90;;;;;;5216544;28;20488;-49
2023/05/24 03:10:21;;;;;;;11.17;3.53;;;10.80;99.90;;;;;;5218460;28;20923;-48
2023/05/24 03:12:52;;;;;;;9.07;2.83;;;10.90;99.90;;;;;;5221295;28;20225;-49
2023/05/24 03:15:23;;;;;;;14.00;3.90;;;10.70;99.90;;;;;;5216600;28;20190;-50
2023/05/24 03:17:53;;;;;;;16.30;2.73;;;10.70;99.90;;;;;;5215309;28;20202;-48
2023/05/24 03:20:24;;;;;;;13.20;3.70;;;10.80;99.90;;;;;;5216803;28;20503;-48
2023/05/24 03:22:55;;;;;;;9.73;3.47;;;10.80;99.90;;;;;;5218900;28;20183;-49
2023/05/24 03:25:26;;;;;;;16.07;3.50;;;10.70;99.90;;;;;;5215289;28;21290;-50
2023/05/24 03:27:56;;;;;;;10.83;3.13;;;10.70;99.90;;;;;;5218558;28;20244;-49
2023/05/24 03:30:27;;;;;;;6.53;3.67;;;10.70;99.90;;;;;;5215051;28;20986;-48
2023/05/24 03:32:58;;;;;;;6.13;2.80;;;10.70;99.90;;;;;;5214576;28;20273;-48
2023/05/24 03:35:29;;;;;;;12.67;3.60;;;10.70;99.90;;;;;;5218648;28;20190;-50
2023/05/24 03:37:59;;;;;;;15.27;3.57;;;10.80;99.90;;;;;;5214754;28;20627;-49
2023/05/24 03:40:32;;;;;;;13.23;3.60;;;10.80;99.90;;;;;;5215238;28;20191;-50
2023/05/24 03:43:02;;;;;;;9.07;3.37;;;10.70;99.90;;;;;;5219736;28;20214;-49
2023/05/24 03:45:33;;;;;;;8.77;2.80;;;10.70;99.90;;;;;;5231215;28;20472;-48
2023/05/24 03:48:04;;;;;;;20.30;3.63;;;10.70;99.90;;;;;;5218148;28;20218;-48
2023/05/24 03:50:34;;;;;;;23.17;4.00;;;10.70;99.90;;;;;;5216050;28;20202;-49
2023/05/24 03:53:05;;;;;;;11.60;3.50;;;10.80;99.90;;;;;;5215865;28;20643;-49
2023/05/24 03:55:36;;;;;;;17.97;3.40;;;10.80;99.90;;;;;;5212885;28;20262;-49
2023/05/24 03:58:06;;;;;;;20.10;3.93;;;10.90;99.90;;;;;;5219979;28;20214;-50
2023/05/24 04:00:37;;;;;;;10.03;3.63;;;11.00;99.90;;;;;;5214285;28;20183;-51
2023/05/24 04:03:08;;;;;;;10.20;2.97;;;11.00;99.90;;;;;;5211815;28;20204;-49
2023/05/24 04:05:38;;;;;;;17.67;2.93;;;11.10;99.90;;;;;;5217722;28;20197;-50
2023/05/24 04:08:09;;;;;;;18.00;3.33;;;11.10;99.90;;;;;;5218669;28;20284;-50
2023/05/24 04:10:41;;;;;;;10.60;2.80;;;11.10;99.90;;;;;;5214690;28;20305;-49
2023/05/24 04:13:11;;;;;;;12.23;2.90;;;11.20;99.90;;;;;;5220684;28;20179;-50
2023/05/24 04:15:42;;;;;;;12.47;2.57;;;11.10;99.90;;;;;;5212710;28;20449;-51
2023/05/24 04:18:13;;;;;;;10.50;2.73;;;11.20;99.90;;;;;;5217702;28;20214;-50
2023/05/24 04:20:43;;;;;;;20.93;3.37;;;11.10;99.90;;;;;;5215759;28;20199;-48
2023/05/24 04:23:14;;;;;;;10.80;2.67;;;11.00;99.90;;;;;;5218544;28;20187;-49
2023/05/24 04:25:45;;;;;;;8.60;2.57;;;11.00;99.90;;;;;;5214648;28;20208;-49
2023/05/24 04:28:16;;;;;;;10.60;2.63;;;11.00;99.90;;;;;;5219387;28;20485;-49
2023/05/24 04:30:47;;;;;;;8.07;2.97;;;10.90;99.90;;;;;;5213374;28;20229;-50
2023/05/24 04:33:18;;;;;;;12.83;3.03;;;10.90;99.90;;;;;;5219547;28;20297;-50
2023/05/24 04:35:49;;;;;;;9.37;3.10;;;10.90;99.90;;;;;;5217517;28;20443;-50
2023/05/24 04:38:20;;;;;;;13.47;3.50;;;11.00;99.90;;;;;;5216530;28;20460;-50
2023/05/24 04:40:51;;;;;;;4.87;2.87;;;10.90;99.90;;;;;;5204209;28;20223;-50
2023/05/24 04:43:21;;;;;;;6.30;2.80;;;11.00;99.90;;;;;;5217467;28;20187;-49
2023/05/24 04:45:56;;;;;;;13.40;3.83;;;11.10;99.90;;;;;;5215429;28;20594;-49
2023/05/24 04:48:26;;;;;;;15.37;3.03;;;11.10;99.90;;;;;;5219843;28;20198;-49
2023/05/24 04:50:57;;;;;;;16.57;3.60;;;11.20;99.90;;;;;;5235602;28;20988;-50
2023/05/24 04:53:28;;;;;;;14.50;3.73;;;11.30;99.90;;;;;;5220454;28;20185;-48
2023/05/24 04:55:58;;;;;;;13.87;3.70;;;11.20;99.90;;;;;;5222943;28;20202;-50
2023/05/24 04:58:29;;;;;;;7.90;3.33;;;11.20;99.90;;;;;;5222327;28;20281;-49
2023/05/24 05:01:01;;;;;;;12.50;3.50;;;11.10;99.90;;;;;;5218446;28;20655;-50
2023/05/24 05:03:32;;;;;;;16.47;3.40;;;11.10;99.90;;;;;;5223621;28;20225;-50
2023/05/24 05:06:02;;;;;;;9.97;3.53;;;11.00;99.90;;;;;;5221275;28;20437;-49
2023/05/24 05:08:33;;;;;;;10.50;3.13;;;11.00;99.90;;;;;;5222698;28;20210;-49
2023/05/24 05:11:03;;;;;;;14.17;3.50;;;11.10;99.90;;;;;;5221324;28;20249;-50
2023/05/24 05:13:34;;;;;;;12.20;3.47;;;11.20;99.90;;;;;;5223370;28;20270;-49
2023/05/24 05:16:05;;;;;;;18.43;3.23;;;11.40;99.90;;;;;;5223980;28;20255;-49
2023/05/24 05:18:36;;;;;;;11.70;3.60;;;11.40;99.90;;;;;;5221202;28;20302;-49
2023/05/24 05:21:06;;;;;;;17.03;4.03;;;11.40;99.90;;;;;;5222502;28;20687;-51
2023/05/24 05:23:38;;;;;;;12.00;4.10;;;11.50;99.90;;;;;;5222152;28;20706;-50
2023/05/24 05:26:09;;;;;;;28.60;4.97;;;11.40;99.90;;;;;;5224368;28;20648;-52
2023/05/24 05:28:39;;;;;;;20.20;4.10;;;11.40;99.90;;;;;;5217740;28;20489;-50
2023/05/24 05:31:10;;;;;;;13.40;4.17;;;11.40;99.90;;;;;;5221044;28;20215;-48
2023/05/24 05:33:40;;;;;;;28.97;4.90;;;11.50;99.90;;;;;;5223607;28;20187;-49
2023/05/24 05:36:11;;;;;;;15.87;5.10;;;11.50;99.90;;;;;;5222554;28;20197;-49
2023/05/24 05:38:42;;;;;;;14.37;3.60;;;11.60;99.90;;;;;;5222119;28;20234;-49
2023/05/24 05:41:12;;;;;;;27.97;4.53;;;11.60;99.90;;;;;;5221470;28;20183;-49
2023/05/24 05:43:43;;;;;;;18.37;5.20;;;11.70;99.90;;;;;;5223438;28;20183;-49
2023/05/24 05:46:14;;;;;;;17.87;3.60;;;11.90;99.90;;;;;;5222589;28;20236;-49
2023/05/24 05:48:46;;;;;;;11.40;3.67;;;12.00;99.90;;;;;;5219979;28;20602;-48
2023/05/24 05:51:16;;;;;;;9.23;4.30;;;12.10;99.90;;;;;;5222081;28;20489;-48
2023/05/24 05:53:47;;;;;;;11.13;3.77;;;12.10;99.90;;;;;;5217709;28;20464;-49
2023/05/24 05:56:18;;;;;;;15.80;4.87;;;12.10;99.90;;;;;;5215261;28;20201;-48
2023/05/24 05:58:48;;;;;;;17.67;4.70;;;12.20;99.90;;;;;;5219730;28;20206;-48
2023/05/24 06:01:19;;;;;;;18.67;4.57;;;12.00;99.90;;;;;;5215737;28;20203;-49
2023/05/24 06:03:50;;;;;;;28.50;4.43;;;12.20;99.90;;;;;;5203941;28;20261;-50
2023/05/24 06:06:21;;;;;;;14.03;4.27;;;12.20;99.90;;;;;;5219870;28;20175;-49
2023/05/24 06:08:51;;;;;;;20.63;4.50;;;12.20;99.90;;;;;;5214855;28;20452;-51
2023/05/24 06:11:22;;;;;;;24.43;5.37;;;12.00;99.90;;;;;;5208903;28;20301;-48
2023/05/24 06:13:53;;;;;;;14.17;4.30;;;12.10;99.90;;;;;;5188203;28;20848;-50
2023/05/24 06:16:23;;;;;;;18.43;5.20;;;12.30;99.90;;;;;;5208970;28;20206;-50
2023/05/24 06:18:55;;;;;;;23.80;5.17;;;12.50;99.90;;;;;;5217378;28;20241;-50
2023/05/24 06:21:25;;;;;;;15.90;5.30;;;12.50;99.90;;;;;;5217464;28;20213;-48
2023/05/24 06:23:57;;;;;;;17.83;4.13;;;12.50;99.90;;;;;;5218661;28;20834;-51
2023/05/24 06:26:27;;;;;;;12.00;4.17;;;12.40;99.90;;;;;;5216428;28;20210;-54
2023/05/24 06:28:58;;;;;;;26.57;6.37;;;12.40;99.90;;;;;;5210334;28;20553;-51
2023/05/24 06:31:28;;;;;;;24.20;4.67;;;12.50;99.90;;;;;;5217552;28;20206;-50
2023/05/24 06:33:59;;;;;;;22.07;4.57;;;12.40;99.90;;;;;;5215090;28;20210;-51
2023/05/24 06:36:32;;;;;;;22.10;5.37;;;12.10;99.90;;;;;;5219708;28;20229;-49
2023/05/24 06:39:03;;;;;;;19.30;5.57;;;12.10;99.90;;;;;;5213662;28;20210;-49
2023/05/24 06:41:34;;;;;;;19.53;4.50;;;12.00;99.90;;;;;;5219555;28;20907;-49
2023/05/24 06:44:05;;;;;;;19.70;5.70;;;11.90;99.90;;;;;;5201949;28;20449;-49
2023/05/24 06:46:36;;;;;;;24.87;4.90;;;12.10;99.90;;;;;;5222352;28;20300;-49
2023/05/24 06:49:07;;;;;;;15.10;4.30;;;12.30;99.90;;;;;;5219577;28;20457;-49
2023/05/24 06:51:38;;;;;;;15.83;4.57;;;12.30;99.90;;;;;;5219915;28;20313;-48
2023/05/24 06:54:08;;;;;;;19.90;5.27;;;12.50;99.90;;;;;;5214656;28;20437;-50
2023/05/24 06:56:39;;;;;;;40.43;5.33;;;12.70;99.90;;;;;;5220068;28;20226;-48
2023/05/24 06:59:09;;;;;;;15.80;4.53;;;12.60;99.90;;;;;;5224157;28;20788;-49
2023/05/24 07:01:41;;;;;;;23.30;5.23;;;12.70;99.90;;;;;;5214632;28;20190;-52
2023/05/24 07:04:12;;;;;;;18.53;4.60;;;12.80;99.90;;;;;;5221100;28;20670;-51
2023/05/24 07:06:44;;;;;;;28.07;6.20;;;13.10;99.90;;;;;;5218666;28;20438;-50
2023/05/24 07:09:15;;;;;;;14.40;4.77;;;13.10;99.90;;;;;;5218059;28;20237;-51
2023/05/24 07:11:45;;;;;;;12.33;4.60;;;13.40;99.90;;;;;;5211457;28;20553;-49
2023/05/24 07:14:16;;;;;;;19.13;5.10;;;13.60;99.90;;;;;;5214038;28;20183;-50
2023/05/24 07:16:47;;;;;;;15.40;4.80;;;13.30;99.90;;;;;;5216744;28;20553;-49
2023/05/24 07:19:20;;;;;;;16.80;4.50;;;13.30;99.90;;;;;;5214532;28;20624;-47
2023/05/24 07:21:52;;;;;;;18.67;4.87;;;13.30;99.90;;;;;;5218762;28;20437;-49
2023/05/24 07:24:23;;;;;;;12.63;4.03;;;13.50;99.90;;;;;;5216280;28;20437;-51
2023/05/24 07:26:55;;;;;;;11.33;4.50;;;13.50;99.90;;;;;;5211818;28;20445;-49
2023/05/24 07:29:26;;;;;;;10.80;5.03;;;13.80;99.90;;;;;;5200672;28;20187;-50
2023/05/24 07:31:57;;;;;;;11.97;4.43;;;14.20;99.90;;;;;;5212404;28;20483;-48
2023/05/24 07:34:28;;;;;;;25.07;5.60;;;14.40;99.90;;;;;;5213784;28;20468;-49
2023/05/24 07:37:00;;;;;;;33.43;5.53;;;14.70;99.90;;;;;;5215736;28;20639;-50
2023/05/24 07:39:31;;;;;;;18.53;4.60;;;14.70;99.90;;;;;;5217214;28;20441;-49
2023/05/24 07:42:01;;;;;;;27.73;5.23;;;14.80;99.90;;;;;;5213545;28;20437;-50
2023/05/24 07:44:32;;;;;;;14.40;5.23;;;14.90;99.90;;;;;;5211066;28;20202;-49
2023/05/24 07:47:03;;;;;;;15.07;4.83;;;14.90;99.90;;;;;;5214586;28;20179;-49
2023/05/24 07:49:33;;;;;;;23.07;4.87;;;14.90;99.60;;;;;;5215922;28;20254;-49
2023/05/24 07:52:05;;;;;;;16.13;4.73;;;15.00;99.30;;;;;;5213277;28;20528;-49
2023/05/24 07:54:36;;;;;;;19.87;4.60;;;15.00;98.90;;;;;;5218355;28;20205;-49
2023/05/24 07:57:07;;;;;;;18.63;4.77;;;15.10;98.60;;;;;;5214178;28;20486;-48
2023/05/24 07:59:37;;;;;;;18.53;5.00;;;14.70;98.20;;;;;;5212114;28;20441;-48
2023/05/24 08:02:10;;;;;;;11.03;3.17;;;14.80;98.30;;;;;;5212054;28;20794;-53
2023/05/24 08:04:41;;;;;;;27.70;4.57;;;14.80;98.20;;;;;;5217124;28;20226;-48
2023/05/24 08:07:12;;;;;;;12.57;3.93;;;14.60;97.60;;;;;;5218237;28;20960;-49
2023/05/24 08:09:42;;;;;;;11.57;3.27;;;14.50;97.90;;;;;;5217294;28;20445;-50
2023/05/24 08:12:13;;;;;;;16.10;4.57;;;14.60;97.90;;;;;;5215076;28;20211;-50
2023/05/24 08:14:43;;;;;;;11.80;3.40;;;14.40;97.90;;;;;;5211478;28;20286;-48
2023/05/24 08:17:14;;;;;;;22.23;4.00;;;14.50;97.50;;;;;;5215168;28;20210;-48
2023/05/24 08:19:45;;;;;;;11.17;4.10;;;14.50;96.90;;;;;;5220919;28;20184;-49
2023/05/24 08:22:15;;;;;;;20.70;4.40;;;14.40;97.50;;;;;;5210278;28;20525;-50
2023/05/24 08:24:46;;;;;;;11.10;3.83;;;14.50;97.50;;;;;;5229389;28;20679;-49
2023/05/24 08:27:17;;;;;;;14.10;4.20;;;14.50;97.70;;;;;;5220244;28;20199;-48
2023/05/24 08:29:48;;;;;;;15.43;5.33;;;14.40;98.20;;;;;;5221445;28;20187;-50
2023/05/24 08:32:19;;;;;;;21.83;4.70;;;14.50;98.80;;;;;;5213898;28;20475;-47
2023/05/24 08:34:49;;;;;;;14.80;4.70;;;14.60;98.90;;;;;;5219774;28;20179;-48
2023/05/24 08:37:21;;;;;;;13.07;4.77;;;14.70;98.80;;;;;;5219207;28;20470;-50
2023/05/24 08:39:52;;;;;;;18.53;4.70;;;14.80;98.50;;;;;;5234823;28;20225;-50
2023/05/24 08:42:23;;;;;;;17.00;4.30;;;14.70;97.90;;;;;;5224374;28;20840;-51
2023/05/24 08:45:07;;;;;;;23.03;4.80;;;14.70;97.90;;;;;;5234870;28;20639;-49
2023/05/24 08:47:39;;;;;;;16.03;4.00;;;14.70;97.80;;;;;;5217227;28;20943;-48
2023/05/24 08:50:10;;;;;;;16.27;4.63;;;14.70;97.80;;;;;;5219191;28;20426;-51
2023/05/24 08:52:41;;;;;;;27.00;7.50;;;14.90;98.00;;;;;;5221224;28;20446;-51
2023/05/24 08:55:13;;;;;;;36.83;13.10;;;15.00;97.40;;;;;;5217758;28;20925;-50
2023/05/24 08:57:45;;;;;;;33.37;14.20;;;15.20;97.10;;;;;;5226181;28;20461;-49
2023/05/24 09:00:16;;;;;;;41.00;10.33;;;15.50;97.00;;;;;;5226103;28;20427;-49
2023/05/24 09:02:48;;;;;;;28.93;11.63;;;15.70;95.90;;;;;;5221544;28;20437;-48
2023/05/24 09:05:20;;;;;;;22.00;7.93;;;15.90;95.40;;;;;;5228509;28;20437;-49
2023/05/24 09:07:53;;;;;;;31.77;11.77;;;15.80;94.90;;;;;;5224975;28;20501;-48
2023/05/24 09:10:25;;;;;;;29.20;13.10;;;15.80;95.00;;;;;;5227020;28;20881;-50
2023/05/24 09:12:59;;;;;;;20.30;9.40;;;15.70;94.70;;;;;;5222577;28;20434;-52
2023/05/24 09:15:30;;;;;;;29.40;11.87;;;15.90;94.30;;;;;;5215354;28;20868;-48
2023/05/24 09:18:00;;;;;;;18.50;7.80;;;16.20;94.00;;;;;;5224895;28;20544;-48
2023/05/24 09:20:31;;;;;;;18.17;8.37;;;16.10;93.20;;;;;;5227966;28;20232;-48
2023/05/24 09:23:04;;;;;;;17.90;6.10;;;16.20;93.20;;;;;;5214012;28;20197;-48
2023/05/24 09:25:35;;;;;;;13.30;5.80;;;16.40;92.50;;;;;;5220439;28;20207;-52
2023/05/24 09:28:08;;;;;;;15.73;8.43;;;16.60;91.60;;;;;;5228159;28;20469;-49
2023/05/24 09:30:41;;;;;;;23.27;8.93;;;16.90;90.80;;;;;;5207323;28;20207;-50
2023/05/24 09:33:12;;;;;;;33.07;9.63;;;17.30;88.40;;;;;;5219122;28;20436;-49
2023/05/24 09:35:43;;;;;;;13.70;6.07;;;17.40;86.90;;;;;;5222648;28;20433;-49
2023/05/24 09:38:17;;;;;;;19.97;9.37;;;17.50;84.30;;;;;;5222116;28;20422;-51
2023/05/24 09:40:59;;;;;;;16.43;5.13;;;17.30;82.10;;;;;;5222548;28;20189;-48
2023/05/24 09:43:31;;;;;;;24.40;8.40;;;16.90;83.10;;;;;;5220885;28;20441;-49
2023/05/24 09:46:03;;;;;;;15.97;5.33;;;17.00;82.90;;;;;;5222603;28;20441;-48
2023/05/24 09:48:34;;;;;;;24.97;7.90;;;16.40;81.40;;;;;;5223380;28;20597;-48
2023/05/24 09:51:08;;;;;;;24.40;10.50;;;15.80;84.50;;;;;;5225223;28;21117;-47
2023/05/24 09:53:45;;;;;;;31.07;8.67;;;16.00;87.00;;;;;;5217743;28;20182;-49
2023/05/24 09:56:17;;;;;;;13.60;7.10;;;16.30;85.80;;;;;;5217355;28;20464;-49
2023/05/24 09:58:47;;;;;;;25.23;8.13;;;16.50;84.90;;;;;;5226699;28;20471;-49
2023/05/24 10:01:23;;;;;;;12.43;5.87;;;16.80;83.30;;;;;;5222404;28;20449;-48
2023/05/24 10:03:55;;;;;;;12.60;7.40;;;16.80;81.20;;;;;;5224167;28;20667;-50
2023/05/24 10:06:26;;;;;;;17.83;8.17;;;17.20;81.40;;;;;;5225565;28;20517;-49
2023/05/24 10:08:57;;;;;;;17.57;8.50;;;17.50;78.90;;;;;;5223319;28;20464;-51
2023/05/24 10:11:28;;;;;;;21.33;7.80;;;17.90;75.00;;;;;;5218434;28;20540;-49
2023/05/24 10:13:59;;;;;;;14.67;5.37;;;18.00;71.90;;;;;;5223556;28;20436;-50
2023/05/24 10:16:30;;;;;;;9.03;4.13;;;17.90;71.10;;;;;;5208567;28;20184;-49
2023/05/24 10:19:00;;;;;;;14.80;7.53;;;17.90;70.90;;;;;;5215222;28;20466;-50
2023/05/24 10:21:33;;;;;;;15.50;4.90;;;17.70;69.10;;;;;;5220631;28;20183;-48
2023/05/24 10:24:05;;;;;;;18.30;8.20;;;17.40;71.10;;;;;;5218633;28;20187;-49
2023/05/24 10:26:38;;;;;;;19.20;7.47;;;17.50;72.90;;;;;;5219239;28;20956;-50
2023/05/24 10:29:18;;;;;;;25.83;12.93;;;17.90;72.80;;;;;;5210386;28;20489;-49
2023/05/24 10:31:50;;;;;;;27.60;14.23;;;18.40;72.10;;;;;;5206140;28;20465;-47
2023/05/24 10:34:21;;;;;;;12.33;4.60;;;19.30;70.10;;;;;;5212121;28;20444;-48
2023/05/24 10:36:53;;;;;;;8.37;3.70;;;19.50;65.40;;;;;;5223098;28;20425;-48
2023/05/24 10:39:24;;;;;;;10.87;3.30;;;19.60;62.90;;;;;;5219478;28;20464;-49
2023/05/24 10:41:56;;;;;;;9.00;2.83;;;19.70;60.70;;;;;;5220353;28;20442;-46
2023/05/24 10:44:29;;;;;;;6.90;3.33;;;19.70;59.30;;;;;;5208691;28;20825;-49
2023/05/24 10:47:14;;;;;;;6.70;2.90;;;20.00;57.70;;;;;;5214302;28;20424;-47
2023/05/24 10:49:52;;;;;;;5.60;3.50;;;19.80;57.10;;;;;;5210427;28;20529;-47
2023/05/24 10:52:34;;;;;;;15.20;5.93;;;19.70;56.80;;;;;;5212519;28;20810;-48
2023/05/24 10:55:09;;;;;;;7.20;4.17;;;19.40;57.80;;;;;;5211303;28;20429;-49
2023/05/24 10:57:40;;;;;;;7.30;3.33;;;19.10;57.30;;;;;;5210831;28;20500;-46
2023/05/24 11:00:24;;;;;;;8.70;3.67;;;18.80;57.10;;;;;;5220587;28;20436;-48
2023/05/24 11:03:02;;;;;;;8.70;5.77;;;18.70;57.80;;;;;;5225888;28;20448;-48
2023/05/24 11:05:46;;;;;;;16.07;9.20;;;18.40;58.80;;;;;;5223308;28;20425;-48
2023/05/24 11:08:32;;;;;;;18.03;3.93;;;17.90;59.40;;;;;;5223089;28;20506;-50
2023/05/24 11:11:11;;;;;;;13.47;4.27;;;17.60;60.30;;;;;;5224092;28;20460;-48
2023/05/24 11:13:42;;;;;;;13.37;3.90;;;16.90;62.10;;;;;;5221681;28;20429;-49
2023/05/24 11:16:36;;;;;;;12.33;3.93;;;16.50;63.00;;;;;;5219677;28;20536;-49
2023/05/24 11:19:33;;;;;;;8.73;4.30;;;16.00;64.90;;;;;;5230543;28;20477;-48
2023/05/24 11:22:07;;;;;;;9.57;3.93;;;15.90;66.80;;;;;;5215394;28;20742;-47
2023/05/24 11:24:40;;;;;;;10.90;3.93;;;16.00;67.20;;;;;;5221363;28;20523;-49
2023/05/24 11:27:12;;;;;;;12.40;4.87;;;15.90;67.70;;;;;;5221299;28;20807;-47
2023/05/24 11:29:44;;;;;;;9.43;3.13;;;16.00;68.50;;;;;;5218265;28;20437;-47
2023/05/24 11:32:19;;;;;;;7.73;3.00;;;16.20;68.90;;;;;;5218591;28;20449;-49
2023/05/24 11:34:50;;;;;;;4.40;2.50;;;16.50;68.40;;;;;;5219479;28;20967;-49
2023/05/24 11:37:21;;;;;;;8.67;3.53;;;16.70;68.20;;;;;;5218348;28;20441;-48
2023/05/24 11:39:52;;;;;;;8.37;2.73;;;16.90;66.20;;;;;;5217508;28;20216;-49
2023/05/24 11:42:23;;;;;;;6.87;2.87;;;17.30;64.80;;;;;;5216906;28;20993;-49
2023/05/24 11:44:54;;;;;;;11.53;5.13;;;17.50;63.80;;;;;;5214134;28;20855;-48
2023/05/24 11:47:25;;;;;;;12.03;2.70;;;17.90;62.50;;;;;;5216099;28;20222;-49
2023/05/24 11:49:55;;;;;;;4.93;2.20;;;18.20;59.50;;;;;;5216247;28;20453;-49
2023/05/24 11:52:26;;;;;;;10.60;2.63;;;17.80;59.30;;;;;;5218182;28;20702;-47
2023/05/24 11:54:57;;;;;;;8.90;3.83;;;17.70;59.70;;;;;;5218146;28;20175;-48
2023/05/24 11:57:38;;;;;;;3.43;2.40;;;17.80;59.50;;;;;;5217631;28;20302;-49
2023/05/24 12:00:15;;;;;;;11.30;3.70;;;17.80;59.40;;;;;;5229805;28;20269;-48
2023/05/24 12:02:47;;;;;;;8.53;3.00;;;17.60;59.30;;;;;;5233158;28;20425;-48
2023/05/24 12:05:18;;;;;;;4.40;3.00;;;17.10;59.40;;;;;;5234100;28;20548;-47
2023/05/24 12:08:06;;;;;;;5.50;3.07;;;16.80;61.50;;;;;;5220778;28;20464;-49
2023/05/24 12:10:39;;;;;;;10.20;3.73;;;16.90;62.40;;;;;;5227159;28;20666;-49
2023/05/24 12:13:24;;;;;;;7.07;3.70;;;16.90;61.00;;;;;;5226612;28;20422;-47
2023/05/24 12:15:57;;;;;;;9.43;2.80;;;16.90;60.80;;;;;;5228246;28;20441;-47
2023/05/24 12:18:28;;;;;;;5.33;3.37;;;16.50;62.30;;;;;;5221986;28;20469;-48
2023/05/24 12:20:58;;;;;;;7.40;2.57;;;16.50;65.00;;;;;;5220636;28;20434;-52
2023/05/24 12:23:31;;;;;;;8.80;2.97;;;16.40;66.00;;;;;;5224175;28;20430;-48
2023/05/24 12:26:03;;;;;;;6.90;2.80;;;16.50;65.70;;;;;;5222710;28;20183;-49
2023/05/24 12:28:37;;;;;;;11.60;3.93;;;16.60;65.90;;;;;;5224608;28;20452;-47
2023/05/24 12:31:08;;;;;;;10.40;4.33;;;16.60;65.30;;;;;;5219431;28;20521;-47
2023/05/24 12:33:39;;;;;;;9.57;3.37;;;16.70;65.10;;;;;;5222406;28;20445;-47
2023/05/24 12:36:10;;;;;;;5.03;2.70;;;16.50;64.70;;;;;;5228547;28;20433;-47
2023/05/24 12:38:41;;;;;;;9.07;3.80;;;16.30;64.30;;;;;;5224127;28;20200;-48
2023/05/24 12:41:11;;;;;;;6.07;2.70;;;16.40;64.30;;;;;;5225406;28;20285;-48
2023/05/24 12:43:43;;;;;;;7.80;3.20;;;16.40;65.10;;;;;;5224580;28;20209;-48
2023/05/24 12:46:13;;;;;;;8.40;3.40;;;16.60;65.40;;;;;;5219028;28;20222;-47
2023/05/24 12:48:44;;;;;;;9.90;3.23;;;16.60;64.90;;;;;;5221793;28;20492;-47
2023/05/24 12:51:15;;;;;;;7.50;3.17;;;16.60;65.20;;;;;;5220860;28;20973;-47
2023/05/24 12:53:45;;;;;;;4.00;2.60;;;16.50;64.80;;;;;;5221374;28;20269;-46
2023/05/24 12:56:16;;;;;;;6.77;2.50;;;16.20;63.30;;;;;;5220084;28;20183;-48
2023/05/24 12:58:47;;;;;;;3.33;3.03;;;16.00;64.60;;;;;;5222711;28;20197;-48
2023/05/24 13:01:18;;;;;;;9.00;2.90;;;16.00;66.90;;;;;;5221005;28;20280;-47
2023/05/24 13:03:48;;;;;;;6.10;2.60;;;16.20;67.40;;;;;;5213655;28;20190;-47